Weather at Mogollon Airpark

Public forecast

Using degrees Fahrenheit for public forecast. Weather courtesy of forecast.io.

Closest aviation weather report (METAR) to Mogollon Airpark

Closest report is Show Low Regional Airport, 27.1 nm (50.2 km) ESE. Retrieved 2022/01/22 21:15 UTC (15 minutes ago):

KSOW 222115Z AUTO 32005KT 5SM HZ SCT006 BKN024 OVC048 03/M02 A3011 RMK AO2

Closest aviation forecast (TAF) to Mogollon Airpark

Closest forecast is Winslow Lindbergh Regional Airport, 38.6 nm (71.5 km) NNW. Retrieved 2022/01/22 18:39 UTC (3 hours ago):

TAF KINW 221736Z 2218/2318 05009KT P6SM SCT050 OVC080 FM230200 33007KT P6SM SCT050 BKN080